Time;durP1;ratioP1;P1;durP2;ratioP2;P2;SDS_P1;SDS_P2;PMS_P1;PMS_P2;Temp;Humidity;BMP_temperature;BMP_pressure;BME280_temperature;BME280_humidity;BME280_pressure;Samples;Min_cycle;Max_cycle;Signal;HPM_P1;HPM_P2
2022/04/09 00:00:48;;;;;;;5.13;1.00;;;;;;;3.42;100.00;99972.38;10416063;28;20041;-76
2022/04/09 00:05:48;;;;;;;3.58;0.98;;;;;;;3.16;100.00;99961.81;10377054;28;20029;-75
2022/04/09 00:10:49;;;;;;;7.60;1.52;;;;;;;2.89;100.00;99951.25;10360137;28;20037;-75
2022/04/09 00:15:49;;;;;;;4.60;1.65;;;;;;;2.92;100.00;99972.56;10375479;28;20045;-75
2022/04/09 00:20:50;;;;;;;8.45;1.75;;;;;;;2.89;100.00;99967.56;10392124;28;20034;-76
2022/04/09 00:25:51;;;;;;;9.75;2.00;;;;;;;2.82;100.00;99972.25;10374604;28;20501;-75
2022/04/09 00:30:51;;;;;;;8.60;2.13;;;;;;;2.74;100.00;99978.00;10375428;28;20045;-75
2022/04/09 00:35:52;;;;;;;9.38;2.03;;;;;;;2.66;100.00;99995.41;10359964;28;20045;-75
2022/04/09 00:40:52;;;;;;;13.13;2.05;;;;;;;2.59;100.00;100000.09;10358981;28;20034;-75
2022/04/09 00:45:53;;;;;;;4.22;1.63;;;;;;;2.67;100.00;100015.25;10358356;28;20038;-75
2022/04/09 00:50:54;;;;;;;8.65;1.48;;;;;;;2.55;100.00;100013.28;10373803;28;20418;-76
2022/04/09 00:56:13;;;;;;;8.90;2.72;;;;;;;2.48;100.00;100025.25;10373988;28;20497;-76
2022/04/09 01:01:13;;;;;;;12.25;2.45;;;;;;;2.44;100.00;100024.91;10363302;28;20044;-75
2022/04/09 01:06:14;;;;;;;6.70;1.60;;;;;;;2.48;100.00;100034.25;10358822;28;20041;-76
2022/04/09 01:11:14;;;;;;;9.48;1.90;;;;;;;2.59;100.00;100046.28;10356817;28;20038;-75
2022/04/09 01:16:15;;;;;;;11.43;2.45;;;;;;;2.05;100.00;99969.84;10370446;28;20038;-76
2022/04/09 01:21:15;;;;;;;7.03;1.40;;;;;;;2.62;100.00;100062.13;10413603;28;20026;-76
2022/04/09 01:26:16;;;;;;;10.07;1.48;;;;;;;2.66;100.00;100073.41;10412877;28;20085;-75
2022/04/09 01:31:17;;;;;;;12.18;3.22;;;;;;;2.30;100.00;100034.19;10343582;28;20064;-75
2022/04/09 01:36:17;;;;;;;9.65;1.90;;;;;;;2.55;100.00;100092.09;10353325;28;20072;-75
2022/04/09 01:41:17;;;;;;;4.93;1.30;;;;;;;2.61;100.00;100098.53;10355422;28;20038;-76
2022/04/09 01:46:18;;;;;;;6.25;2.10;;;;;;;2.69;100.00;100119.16;10371940;28;20044;-75
2022/04/09 01:51:20;;;;;;;9.20;1.83;;;;;;;2.62;100.00;100113.78;10387580;28;20026;-75
2022/04/09 01:56:21;;;;;;;10.93;1.30;;;;;;;2.45;100.00;100113.47;10383872;28;20037;-76
2022/04/09 02:01:21;;;;;;;6.93;2.35;;;;;;;2.52;100.00;100127.88;10380734;28;20037;-75
2022/04/09 02:06:22;;;;;;;8.15;2.00;;;;;;;2.51;100.00;100125.38;10396946;28;20045;-75
2022/04/09 02:11:23;;;;;;;6.45;1.00;;;;;;;2.53;100.00;100143.09;10412209;28;20482;-76
2022/04/09 02:16:24;;;;;;;8.38;1.40;;;;;;;2.62;100.00;100157.25;10379625;28;20411;-74
2022/04/09 02:21:24;;;;;;;5.50;1.23;;;;;;;2.67;100.00;100145.72;10428815;28;20029;-75
2022/04/09 02:26:25;;;;;;;6.80;1.23;;;;;;;2.96;100.00;100177.72;10373207;28;20049;-75
2022/04/09 02:31:25;;;;;;;5.70;1.08;;;;;;;2.94;100.00;100185.25;10371721;28;20038;-75
2022/04/09 02:36:27;;;;;;;6.03;1.52;;;;;;;2.77;100.00;100192.28;10387965;28;20042;-74
2022/04/09 02:41:29;;;;;;;10.07;2.40;;;;;;;2.52;100.00;100181.34;10386420;28;20102;-76
2022/04/09 02:46:29;;;;;;;3.10;1.00;;;;;;;2.38;100.00;100192.31;10370580;28;20042;-75
2022/04/09 02:51:30;;;;;;;5.82;0.75;;;;;;;2.19;100.00;100185.94;10366847;28;20117;-75
2022/04/09 02:56:30;;;;;;;7.43;1.02;;;;;;;2.18;100.00;100205.16;10377431;28;20044;-76
2022/04/09 03:01:31;;;;;;;6.50;2.45;;;;;;;1.87;100.00;100146.19;10379041;28;20104;-74
2022/04/09 03:06:31;;;;;;;2.78;1.15;;;;;;;2.24;100.00;100215.16;10427471;28;20029;-77
2022/04/09 03:11:32;;;;;;;8.07;1.45;;;;;;;2.15;100.00;100195.56;10377759;28;20034;-75
2022/04/09 03:16:32;;;;;;;10.63;2.13;;;;;;;2.26;100.00;100220.38;10394062;28;20025;-75
2022/04/09 03:21:33;;;;;;;11.32;2.10;;;;;;;2.03;100.00;100197.28;10368983;28;20048;-74
2022/04/09 03:26:33;;;;;;;7.57;1.80;;;;;;;2.25;100.00;100226.84;10366795;28;20019;-75
2022/04/09 03:31:35;;;;;;;10.45;2.08;;;;;;;2.07;100.00;100219.38;10355263;28;20072;-75
2022/04/09 03:36:37;;;;;;;6.22;1.70;;;;;;;2.07;100.00;100227.53;10361766;28;20050;-76
2022/04/09 03:41:38;;;;;;;6.78;1.40;;;;;;;2.00;100.00;100224.84;10360801;28;20036;-76
2022/04/09 03:46:38;;;;;;;10.95;2.05;;;;;;;2.15;100.00;100255.31;10374768;28;20029;-75
2022/04/09 03:51:39;;;;;;;5.03;1.10;;;;;;;2.19;100.00;100261.13;10383909;28;20046;-75
2022/04/09 03:56:40;;;;;;;8.50;1.55;;;;;;;2.17;100.00;100264.06;10375835;28;20042;-74
2022/04/09 04:01:43;;;;;;;4.57;1.20;;;;;;;2.16;100.00;100267.81;10395471;28;20088;-74
2022/04/09 04:06:44;;;;;;;6.72;1.73;;;;;;;2.20;100.00;100266.34;10377106;28;20037;-76
2022/04/09 04:11:44;;;;;;;12.65;1.85;;;;;;;2.23;100.00;100284.09;10375909;28;20030;-74
2022/04/09 04:16:45;;;;;;;7.65;1.65;;;;;;;2.22;100.00;100293.31;10359564;28;20038;-75
2022/04/09 04:21:45;;;;;;;8.93;2.25;;;;;;;2.30;100.00;100282.19;10405742;28;20037;-76
2022/04/09 04:26:46;;;;;;;5.75;1.48;;;;;;;2.36;100.00;100313.94;10389896;28;20026;-73
2022/04/09 04:31:46;;;;;;;5.88;1.48;;;;;;;2.26;100.00;100315.44;10359572;28;20042;-74
2022/04/09 04:36:47;;;;;;;9.45;1.80;;;;;;;2.04;100.00;100302.13;10359213;28;20029;-75
2022/04/09 04:41:48;;;;;;;18.48;2.30;;;;;;;1.99;100.00;100320.94;10358796;28;20068;-74
2022/04/09 04:46:49;;;;;;;8.07;1.77;;;;;;;2.11;100.00;100351.81;10362202;28;20105;-75
2022/04/09 04:51:49;;;;;;;16.67;2.67;;;;;;;2.12;100.00;100341.78;10390744;28;20033;-75
2022/04/09 04:56:50;;;;;;;14.63;2.00;;;;;;;2.17;100.00;100340.13;10391467;28;20045;-75
2022/04/09 05:01:50;;;;;;;7.30;1.73;;;;;;;2.18;100.00;100358.06;10374364;28;20046;-75
2022/04/09 05:06:54;;;;;;;10.10;2.03;;;;;;;2.12;100.00;100364.34;10363886;28;20034;-73
2022/04/09 05:11:54;;;;;;;7.05;1.92;;;;;;;2.12;100.00;100375.19;10373127;28;20033;-74
2022/04/09 05:16:57;;;;;;;12.73;2.03;;;;;;;2.09;100.00;100381.06;10373891;28;20034;-75
2022/04/09 05:21:57;;;;;;;15.32;3.20;;;;;;;2.16;100.00;100384.59;10357390;28;20026;-76
2022/04/09 05:26:58;;;;;;;6.47;1.73;;;;;;;2.22;100.00;100372.06;10341109;28;20050;-74
2022/04/09 05:31:59;;;;;;;6.68;1.67;;;;;;;1.91;100.00;100318.44;10387858;28;20064;-73
2022/04/09 05:36:59;;;;;;;8.30;2.05;;;;;;;2.27;100.00;100383.13;10413199;28;20041;-75
2022/04/09 05:42:00;;;;;;;11.18;1.83;;;;;;;2.46;100.00;100408.59;10429675;28;20034;-75
2022/04/09 05:47:01;;;;;;;10.88;1.45;;;;;;;2.56;100.00;100408.13;10413281;28;20033;-74
2022/04/09 05:52:02;;;;;;;12.77;1.67;;;;;;;2.71;100.00;100429.63;10386765;28;20032;-75
2022/04/09 05:57:04;;;;;;;6.90;1.50;;;;;;;2.19;100.00;100338.03;10371288;28;20064;-75
2022/04/09 06:02:04;;;;;;;8.25;1.33;;;;;;;2.92;100.00;100451.09;10355851;28;20153;-75
2022/04/09 06:07:04;;;;;;;11.85;2.88;;;;;;;3.00;100.00;100459.03;10355453;28;20069;-74
2022/04/09 06:12:07;;;;;;;8.57;1.73;;;;;;;3.21;100.00;100470.66;10354921;28;20041;-75
2022/04/09 06:17:08;;;;;;;8.88;1.80;;;;;;;3.22;100.00;100464.16;10371236;28;20038;-74
2022/04/09 06:22:08;;;;;;;11.23;2.03;;;;;;;3.35;100.00;100475.00;10413046;28;20386;-74
2022/04/09 06:27:10;;;;;;;4.03;1.20;;;;;;;3.57;100.00;100474.66;10393939;28;20414;-74
2022/04/09 06:32:11;;;;;;;5.40;0.85;;;;;;;3.75;100.00;100485.66;10379143;28;20041;-74
2022/04/09 06:37:11;;;;;;;8.02;1.33;;;;;;;4.01;100.00;100481.94;10429380;28;20038;-75
2022/04/09 06:42:12;;;;;;;5.57;2.03;;;;;;;4.37;100.00;100493.19;10395042;28;20036;-75
2022/04/09 06:47:12;;;;;;;6.57;1.55;;;;;;;4.06;100.00;100508.50;10424387;28;20037;-75
2022/04/09 06:52:13;;;;;;;5.55;1.05;;;;;;;3.81;100.00;100513.91;10386958;28;20038;-75
2022/04/09 06:57:13;;;;;;;9.13;1.52;;;;;;;3.96;100.00;100511.72;10347535;28;20045;-75
2022/04/09 07:02:14;;;;;;;14.57;2.03;;;;;;;4.14;100.00;100527.31;10392892;28;20414;-74
2022/04/09 07:07:24;;;;;;;5.00;1.23;;;;;;;4.49;100.00;100548.66;10428098;28;20025;-75
2022/04/09 07:12:25;;;;;;;7.78;2.17;;;;;;;5.07;100.00;100533.00;10393639;28;20029;-76
2022/04/09 07:17:26;;;;;;;12.65;2.00;;;;;;;5.16;100.00;100558.94;10394078;28;20449;-75
2022/04/09 07:22:27;;;;;;;5.50;1.55;;;;;;;4.63;100.00;100560.25;10411011;28;20121;-75
2022/04/09 07:27:38;;;;;;;11.50;2.17;;;;;;;4.32;100.00;100563.84;10339145;28;20046;-74
2022/04/09 07:32:39;;;;;;;22.70;3.00;;;;;;;4.50;100.00;100574.84;10353183;28;20037;-73
2022/04/09 07:37:44;;;;;;;20.00;4.07;;;;;;;4.78;100.00;100563.50;10353295;28;20037;-73
2022/04/09 07:42:44;;;;;;;8.32;2.22;;;;;;;5.29;100.00;100574.31;10353013;28;20053;-75
2022/04/09 07:47:45;;;;;;;14.00;2.35;;;;;;;5.23;100.00;100557.81;10368822;28;20112;-76
2022/04/09 07:52:45;;;;;;;13.00;2.70;;;;;;;5.37;100.00;100577.56;10370124;28;20104;-75
2022/04/09 07:57:47;;;;;;;9.60;2.10;;;;;;;5.30;100.00;100574.09;10412676;28;20026;-74
2022/04/09 08:02:48;;;;;;;9.45;1.77;;;;;;;5.64;100.00;100589.03;10410473;28;20067;-74
2022/04/09 08:07:48;;;;;;;17.23;3.80;;;;;;;5.89;100.00;100590.84;10408097;28;20033;-75
2022/04/09 08:12:51;;;;;;;13.50;2.58;;;;;;;6.26;100.00;100618.09;10413008;28;20048;-75
2022/04/09 08:17:56;;;;;;;14.70;2.33;;;;;;;6.77;100.00;100610.41;10412802;28;20040;-74
2022/04/09 08:22:56;;;;;;;9.98;1.52;;;;;;;6.91;100.00;100620.06;10405684;28;20029;-74
2022/04/09 08:27:57;;;;;;;13.93;1.45;;;;;;;6.98;100.00;100623.50;10415020;28;20045;-74
2022/04/09 08:33:01;;;;;;;13.15;2.28;;;;;;;6.54;100.00;100625.69;10402737;28;20075;-76
2022/04/09 08:38:03;;;;;;;9.18;2.03;;;;;;;6.86;100.00;100628.13;10435590;28;20042;-74
2022/04/09 08:43:04;;;;;;;10.13;2.28;;;;;;;6.63;100.00;100667.22;10434375;28;20025;-74
2022/04/09 08:48:06;;;;;;;6.90;1.88;;;;;;;6.50;100.00;100684.66;10400262;28;20133;-76
2022/04/09 08:53:07;;;;;;;14.43;2.60;;;;;;;6.13;100.00;100695.66;10436851;28;20386;-76
2022/04/09 08:58:07;;;;;;;3.28;1.02;;;;;;;5.45;100.00;100696.59;10417535;28;20041;-76
2022/04/09 09:03:10;;;;;;;4.43;1.02;;;;;;;4.53;100.00;100647.19;10378591;28;20037;-75
2022/04/09 09:08:11;;;;;;;2.33;1.25;;;;;;;4.55;100.00;100694.97;10394164;28;20060;-76
2022/04/09 09:13:12;;;;;;;1.30;0.30;;;;;;;4.61;100.00;100705.00;10413045;28;20116;-77
2022/04/09 09:18:22;;;;;;;5.07;0.50;;;;;;;5.95;100.00;100714.78;10395250;28;20033;-75
2022/04/09 09:23:24;;;;;;;2.05;0.63;;;;;;;6.35;100.00;100769.00;10412448;28;20022;-74
2022/04/09 09:28:29;;;;;;;6.30;1.02;;;;;;;4.13;100.00;100767.28;10428307;28;20104;-75
2022/04/09 09:33:29;;;;;;;12.27;2.47;;;;;;;3.33;100.00;100787.31;10393150;28;20509;-75
2022/04/09 09:38:31;;;;;;;6.22;0.90;;;;;;;3.25;100.00;100748.59;10411979;28;20022;-77
2022/04/09 09:43:31;;;;;;;5.95;1.05;;;;;;;3.29;100.00;100747.97;10412300;28;20044;-76
2022/04/09 09:48:35;;;;;;;11.27;1.50;;;;;;;3.65;100.00;100749.38;10396654;28;20025;-75
2022/04/09 09:53:40;;;;;;;1.92;0.63;;;;;;;4.22;100.00;100734.16;10429433;28;20410;-75
2022/04/09 09:58:40;;;;;;;4.30;0.98;;;;;;;5.04;100.00;100753.41;10410378;28;20052;-76
2022/04/09 10:03:40;;;;;;;6.72;2.65;;;;;;;5.62;100.00;100732.34;10410823;28;20037;-75
2022/04/09 10:08:41;;;;;;;4.63;0.93;;;;;;;6.38;100.00;100736.56;10378305;28;20026;-75
2022/04/09 10:13:43;;;;;;;8.02;0.98;;;;;;;7.02;100.00;100725.97;10378162;28;20056;-76
2022/04/09 10:18:45;;;;;;;8.52;1.15;;;;;;;7.72;100.00;100759.16;10394906;28;20022;-79
2022/04/09 10:23:46;;;;;;;6.35;0.82;;;;;;;4.47;100.00;100740.75;10410477;28;20025;-80
2022/04/09 10:28:48;;;;;;;9.02;1.95;;;;;;;3.77;100.00;100788.53;10377078;28;20575;-79
2022/04/09 10:33:54;;;;;;;8.65;0.93;;;;;;;4.18;100.00;100792.03;10377159;28;20045;-83
2022/04/09 10:39:25;;;;;;;10.13;0.90;;;;;;;4.91;100.00;100802.59;10409653;28;20033;-81
2022/04/09 10:44:43;;;;;;;4.72;0.70;;;;;;;5.51;100.00;100793.16;10408565;28;20177;-76
2022/04/09 10:50:02;;;;;;;4.05;1.02;;;;;;;6.02;100.00;100812.03;10425735;28;20061;-77
2022/04/09 10:55:30;;;;;;;1.95;0.50;;;;;;;6.38;100.00;100817.75;10409199;28;20120;-75
2022/04/09 11:00:34;;;;;;;2.10;0.43;;;;;;;6.28;100.00;100806.50;10421532;28;20133;-77
2022/04/09 11:05:34;;;;;;;3.78;0.73;;;;;;;6.51;100.00;100805.81;10426421;28;20485;-76
2022/04/09 11:10:35;;;;;;;2.20;0.40;;;;;;;6.54;100.00;100767.91;10393325;28;20014;-76
2022/04/09 11:15:35;;;;;;;2.30;0.40;;;;;;;7.35;100.00;100822.38;10374528;28;20116;-77
2022/04/09 11:20:37;;;;;;;3.65;0.50;;;;;;;7.72;100.00;100809.31;10424952;28;20037;-80
2022/04/09 11:25:40;;;;;;;1.45;0.45;;;;;;;7.93;100.00;100815.28;10390898;28;20629;-77
2022/04/09 11:30:52;;;;;;;2.08;0.60;;;;;;;8.07;100.00;100824.94;10391277;28;20050;-79
2022/04/09 11:35:52;;;;;;;6.63;1.63;;;;;;;8.05;100.00;100824.34;10391026;28;20128;-79
2022/04/09 11:40:54;;;;;;;4.15;0.85;;;;;;;8.40;100.00;100829.81;10375603;28;20041;-81
2022/04/09 11:46:03;;;;;;;5.28;0.90;;;;;;;8.54;100.00;100819.44;10409147;28;20045;-76
2022/04/09 11:51:04;;;;;;;6.20;0.90;;;;;;;8.72;100.00;100820.34;10426019;28;20424;-75
2022/04/09 11:56:05;;;;;;;4.07;0.80;;;;;;;9.08;100.00;100814.47;10400162;28;20033;-76
2022/04/09 12:01:09;;;;;;;4.90;0.88;;;;;;;9.74;100.00;100794.72;10384428;28;20049;-77
2022/04/09 12:06:09;;;;;;;4.55;1.05;;;;;;;9.93;96.92;100791.72;10385309;28;20031;-77
2022/04/09 12:11:11;;;;;;;6.93;2.03;;;;;;;9.50;98.22;100822.34;10400679;28;20032;-75
2022/04/09 12:16:14;;;;;;;7.40;1.95;;;;;;;9.97;89.00;100820.38;10384239;28;20025;-72
2022/04/09 12:21:24;;;;;;;7.03;1.00;;;;;;;9.92;85.23;100823.03;10416354;28;20034;-77
2022/04/09 12:26:25;;;;;;;6.72;1.17;;;;;;;8.95;85.48;100825.75;10380826;28;20030;-73
2022/04/09 12:31:26;;;;;;;5.80;1.10;;;;;;;8.48;91.56;100843.19;10392101;28;20050;-75
2022/04/09 12:36:26;;;;;;;6.03;1.13;;;;;;;8.38;95.25;100864.03;10375620;28;20049;-73
2022/04/09 12:41:27;;;;;;;4.20;0.93;;;;;;;8.67;100.00;100890.50;10358604;28;20098;-74
2022/04/09 12:46:27;;;;;;;7.90;1.50;;;;;;;8.95;100.00;100891.66;10374432;28;20030;-74
2022/04/09 12:51:30;;;;;;;8.70;1.35;;;;;;;8.65;100.00;100895.41;10373296;28;20030;-74
2022/04/09 12:56:31;;;;;;;9.20;1.65;;;;;;;8.97;100.00;100891.41;10374523;28;20037;-74
2022/04/09 13:01:31;;;;;;;5.45;1.17;;;;;;;9.81;93.80;100875.09;10374928;28;20030;-78
2022/04/09 13:06:32;;;;;;;6.85;1.50;;;;;;;10.75;86.92;100872.66;10373650;28;20026;-76
2022/04/09 13:11:32;;;;;;;6.45;0.93;;;;;;;10.50;85.53;100868.50;10373507;28;20022;-78
2022/04/09 13:16:33;;;;;;;5.88;1.27;;;;;;;11.54;83.76;100861.19;10373211;28;20486;-78
2022/04/09 13:21:33;;;;;;;7.13;1.15;;;;;;;12.17;78.64;100866.94;10373057;28;20026;-75
2022/04/09 13:26:34;;;;;;;3.70;1.00;;;;;;;12.10;75.64;100853.38;10389508;28;20034;-76
2022/04/09 13:31:34;;;;;;;8.02;1.20;;;;;;;12.24;73.74;100864.81;10356356;28;20129;-76
2022/04/09 13:36:35;;;;;;;6.35;1.00;;;;;;;9.77;80.76;100898.69;10356517;28;20402;-75
2022/04/09 13:41:35;;;;;;;6.13;1.10;;;;;;;8.93;90.73;100932.25;10372046;28;20026;-76
2022/04/09 13:46:37;;;;;;;7.10;1.75;;;;;;;7.72;100.00;100943.59;10374917;28;20094;-73
2022/04/09 13:51:37;;;;;;;9.40;1.30;;;;;;;7.91;100.00;100938.06;10396627;28;20025;-75
2022/04/09 13:56:38;;;;;;;8.20;1.33;;;;;;;7.81;100.00;100942.22;10397292;28;20033;-76
2022/04/09 14:01:38;;;;;;;4.45;0.70;;;;;;;6.72;100.00;100950.38;10429623;28;20051;-76
2022/04/09 14:06:39;;;;;;;6.25;1.00;;;;;;;6.45;100.00;100941.59;10432871;28;20030;-76
2022/04/09 14:11:39;;;;;;;5.70;0.80;;;;;;;8.36;100.00;100938.34;10399443;28;20029;-74
2022/04/09 14:16:40;;;;;;;7.20;1.05;;;;;;;8.26;96.91;100919.72;10412708;28;20029;-77
2022/04/09 14:21:40;;;;;;;7.40;0.82;;;;;;;9.64;91.48;100910.00;10416042;28;20484;-88
2022/04/09 14:26:41;;;;;;;3.97;0.80;;;;;;;10.25;87.84;100924.81;10447700;28;20021;-75
2022/04/09 14:31:41;;;;;;;2.70;0.43;;;;;;;9.32;85.79;100918.75;10394733;28;20049;-76
2022/04/09 14:36:42;;;;;;;2.75;0.50;;;;;;;8.76;89.32;100947.78;10399357;28;20525;-76
2022/04/09 14:41:42;;;;;;;4.90;0.50;;;;;;;9.35;87.82;100926.50;10417484;28;20044;-75
2022/04/09 14:46:43;;;;;;;4.85;0.70;;;;;;;9.48;86.50;100939.94;10393649;28;20026;-74
2022/04/09 14:51:43;;;;;;;6.80;0.77;;;;;;;8.28;89.33;100964.22;10370460;28;20422;-75
2022/04/09 14:56:44;;;;;;;3.10;0.88;;;;;;;7.55;96.80;101003.72;10356663;28;20038;-74
2022/04/09 15:01:46;;;;;;;2.60;0.77;;;;;;;7.91;100.00;101006.59;10379121;28;20042;-73
2022/04/09 15:06:46;;;;;;;5.75;1.08;;;;;;;9.54;100.00;100987.59;10352720;28;20033;-74
2022/04/09 15:11:47;;;;;;;5.53;1.20;;;;;;;9.28;94.07;100943.13;10368806;28;20457;-76
2022/04/09 15:16:47;;;;;;;5.80;1.13;;;;;;;7.83;94.45;101033.28;10368676;28;20119;-77
2022/04/09 15:21:48;;;;;;;6.35;0.70;;;;;;;6.98;96.11;101031.34;10386409;28;20174;-76
2022/04/09 15:26:48;;;;;;;2.45;0.90;;;;;;;6.81;97.53;101031.09;10353769;28;20034;-75
2022/04/09 15:31:49;;;;;;;5.25;1.08;;;;;;;7.34;97.43;101035.16;10377939;28;20456;-74
2022/04/09 15:36:50;;;;;;;12.68;3.28;;;;;;;6.83;100.00;100982.44;10392786;28;20041;-76
2022/04/09 15:41:50;;;;;;;5.32;1.27;;;;;;;6.70;100.00;101044.66;10413677;28;20057;-76
2022/04/09 15:46:54;;;;;;;4.88;1.30;;;;;;;8.36;100.00;101025.31;10416071;28;20018;-76
2022/04/09 15:51:55;;;;;;;6.72;1.05;;;;;;;9.79;96.51;101001.00;10418141;28;20477;-76
2022/04/09 15:56:55;;;;;;;5.45;1.00;;;;;;;9.79;93.54;101014.75;10402082;28;20262;-75
2022/04/09 16:01:56;;;;;;;10.85;1.67;;;;;;;8.08;100.00;101073.38;10385014;28;20030;-77
2022/04/09 16:06:59;;;;;;;10.27;1.92;;;;;;;6.18;100.00;101075.78;10400007;28;20026;-76
2022/04/09 16:12:01;;;;;;;7.30;1.45;;;;;;;6.03;100.00;101065.16;10431797;28;20033;-76
2022/04/09 16:17:02;;;;;;;4.68;0.75;;;;;;;6.64;100.00;101047.25;10431320;28;20037;-74
2022/04/09 16:22:03;;;;;;;10.93;1.77;;;;;;;7.97;100.00;101044.84;10399039;28;20021;-75
2022/04/09 16:27:04;;;;;;;4.97;1.23;;;;;;;8.79;100.00;101048.88;10416208;28;20033;-76
2022/04/09 16:32:05;;;;;;;8.77;1.00;;;;;;;9.46;100.00;101046.53;10432744;28;20505;-75
2022/04/09 16:37:05;;;;;;;7.95;1.40;;;;;;;9.24;98.66;101048.25;10407048;28;20045;-75
2022/04/09 16:42:07;;;;;;;8.65;1.15;;;;;;;8.04;100.00;101072.19;10412977;28;20034;-75
2022/04/09 16:47:07;;;;;;;8.98;2.17;;;;;;;7.11;100.00;101101.56;10430578;28;20037;-74
2022/04/09 16:52:09;;;;;;;12.57;1.65;;;;;;;5.90;100.00;101105.38;10395929;28;20033;-73
2022/04/09 16:57:10;;;;;;;11.60;1.58;;;;;;;5.25;100.00;101122.59;10425094;28;20144;-72
2022/04/09 17:02:11;;;;;;;10.65;1.30;;;;;;;5.00;100.00;101136.06;10396915;28;20383;-73
2022/04/09 17:07:12;;;;;;;8.05;1.13;;;;;;;4.59;100.00;101127.03;10411719;28;20068;-73
2022/04/09 17:12:13;;;;;;;6.22;1.30;;;;;;;4.39;100.00;101113.38;10401131;28;20036;-74
2022/04/09 17:17:14;;;;;;;9.07;1.30;;;;;;;4.74;100.00;101128.72;10388159;28;20030;-73
2022/04/09 17:22:14;;;;;;;5.38;0.88;;;;;;;4.68;100.00;101130.41;10392290;28;20443;-75
2022/04/09 17:27:16;;;;;;;4.88;1.05;;;;;;;4.77;100.00;101147.38;10387332;28;20029;-73
2022/04/09 17:32:17;;;;;;;4.63;0.90;;;;;;;4.60;100.00;101144.25;10424054;28;20034;-74
2022/04/09 17:37:17;;;;;;;9.23;3.00;;;;;;;4.41;100.00;101143.16;10405183;28;20057;-75
2022/04/09 17:42:18;;;;;;;8.93;1.38;;;;;;;4.59;100.00;101148.84;10390128;28;20036;-73
2022/04/09 17:47:19;;;;;;;6.25;0.80;;;;;;;4.74;100.00;101156.84;10392195;28;20474;-73
2022/04/09 17:52:20;;;;;;;8.32;1.10;;;;;;;4.52;100.00;101152.63;10397871;28;20030;-73
2022/04/09 17:57:21;;;;;;;5.22;1.00;;;;;;;4.47;100.00;101161.44;10378330;28;20441;-72
2022/04/09 18:02:22;;;;;;;4.82;1.42;;;;;;;4.33;100.00;101176.06;10382132;28;20078;-73
2022/04/09 18:07:23;;;;;;;3.60;1.05;;;;;;;4.29;100.00;101172.06;10365017;28;20021;-73
2022/04/09 18:12:24;;;;;;;7.05;1.63;;;;;;;4.15;100.00;101176.63;10353928;28;20026;-74
2022/04/09 18:17:24;;;;;;;6.68;1.42;;;;;;;4.05;100.00;101177.00;10384276;28;20038;-73
2022/04/09 18:22:25;;;;;;;13.27;2.60;;;;;;;3.90;100.00;101177.16;10352043;28;20033;-73
2022/04/09 18:27:27;;;;;;;12.63;2.28;;;;;;;4.00;100.00;101193.13;10353175;28;20057;-73
2022/04/09 18:32:27;;;;;;;7.70;1.40;;;;;;;3.98;100.00;101179.72;10353888;28;20034;-73
2022/04/09 18:37:27;;;;;;;8.27;1.50;;;;;;;4.14;100.00;101200.31;10386425;28;20046;-72
2022/04/09 18:42:28;;;;;;;5.28;1.08;;;;;;;4.14;100.00;101211.22;10386014;28;20037;-73
2022/04/09 18:47:28;;;;;;;9.23;1.95;;;;;;;4.10;100.00;101203.66;10354571;28;20030;-73
2022/04/09 18:52:29;;;;;;;10.90;2.45;;;;;;;4.13;100.00;101219.59;10361426;28;20060;-73
2022/04/09 18:57:29;;;;;;;10.23;1.50;;;;;;;3.93;100.00;101246.75;10392578;28;20095;-73
2022/04/09 19:02:30;;;;;;;11.55;2.80;;;;;;;3.51;100.00;101232.25;10425022;28;20025;-73
2022/04/09 19:07:30;;;;;;;5.30;1.45;;;;;;;3.20;100.00;101234.34;10426701;28;20029;-72
2022/04/09 19:12:31;;;;;;;8.02;1.45;;;;;;;2.99;100.00;101245.22;10408608;28;20022;-73
2022/04/09 19:17:32;;;;;;;6.80;1.60;;;;;;;2.60;100.00;101214.75;10409362;28;20049;-72
2022/04/09 19:22:34;;;;;;;5.22;1.60;;;;;;;2.65;100.00;101252.22;10409793;28;20018;-72
2022/04/09 19:27:35;;;;;;;9.02;1.40;;;;;;;2.62;100.00;101249.88;10425107;28;20073;-72
2022/04/09 19:32:36;;;;;;;11.65;2.17;;;;;;;2.68;100.00;101267.31;10409174;28;20106;-73
2022/04/09 19:37:38;;;;;;;6.00;1.60;;;;;;;2.66;100.00;101255.78;10426966;28;20097;-72
2022/04/09 19:42:38;;;;;;;10.48;2.38;;;;;;;2.68;100.00;101259.97;10425155;28;20075;-73
2022/04/09 19:47:39;;;;;;;8.60;2.13;;;;;;;2.67;100.00;101257.44;10428237;28;20030;-73
2022/04/09 19:52:39;;;;;;;8.88;2.00;;;;;;;2.59;100.00;101261.97;10427765;28;20032;-72
2022/04/09 19:57:40;;;;;;;9.27;1.80;;;;;;;2.77;100.00;101290.59;10409363;28;20103;-72
2022/04/09 20:02:40;;;;;;;12.32;3.05;;;;;;;2.75;100.00;101270.91;10409235;28;20033;-73
2022/04/09 20:07:41;;;;;;;7.93;2.20;;;;;;;2.94;100.00;101294.78;10424756;28;20040;-73
2022/04/09 20:12:41;;;;;;;18.10;4.03;;;;;;;2.97;100.00;101280.78;10426181;28;20025;-73
2022/04/09 20:17:44;;;;;;;6.25;1.40;;;;;;;2.96;100.00;101294.59;10398796;28;20064;-73
2022/04/09 20:22:44;;;;;;;4.35;1.40;;;;;;;2.87;100.00;101304.72;10392201;28;20032;-73
2022/04/09 20:27:45;;;;;;;1.73;0.80;;;;;;;2.59;100.00;101300.03;10431336;28;20041;-73
2022/04/09 20:32:45;;;;;;;3.45;0.52;;;;;;;2.46;100.00;101304.47;10430209;28;20037;-73
2022/04/09 20:37:46;;;;;;;8.05;1.30;;;;;;;2.33;100.00;101297.84;10431297;28;20112;-73
2022/04/09 20:42:47;;;;;;;10.18;1.40;;;;;;;2.21;100.00;101297.50;10431059;28;20025;-73
2022/04/09 20:47:47;;;;;;;6.72;1.20;;;;;;;2.23;100.00;101316.28;10432895;28;20036;-71
2022/04/09 20:52:47;;;;;;;9.60;2.20;;;;;;;2.27;100.00;101325.75;10431851;28;20026;-75
2022/04/09 20:57:49;;;;;;;9.43;2.50;;;;;;;2.44;100.00;101353.59;10426294;28;20064;-73
2022/04/09 21:02:51;;;;;;;5.95;1.63;;;;;;;2.59;100.00;101348.97;10378440;28;20512;-71
2022/04/09 21:07:52;;;;;;;8.27;2.05;;;;;;;2.56;100.00;101343.94;10357900;28;20026;-72
2022/04/09 21:12:52;;;;;;;11.35;2.00;;;;;;;2.32;100.00;101336.09;10390016;28;20040;-72
2022/04/09 21:17:54;;;;;;;8.80;1.95;;;;;;;2.24;100.00;101349.75;10358176;28;20045;-71
2022/04/09 21:22:55;;;;;;;14.10;2.25;;;;;;;2.14;100.00;101358.19;10374190;28;20049;-71
2022/04/09 21:27:55;;;;;;;13.95;3.97;;;;;;;2.17;100.00;101361.38;10388941;28;20050;-72
2022/04/09 21:32:56;;;;;;;9.70;2.53;;;;;;;2.08;100.00;101357.06;10372991;28;20049;-71
2022/04/09 21:37:56;;;;;;;10.93;2.80;;;;;;;1.99;100.00;101353.59;10372849;28;20061;-72
2022/04/09 21:42:57;;;;;;;17.30;2.92;;;;;;;1.90;100.00;101368.28;10356223;28;20034;-72
2022/04/09 21:47:59;;;;;;;14.63;3.13;;;;;;;1.96;100.00;101363.97;10357315;28;20336;-72
2022/04/09 21:53:00;;;;;;;16.58;2.50;;;;;;;1.81;100.00;101362.06;10357217;28;20101;-73
2022/04/09 21:58:02;;;;;;;13.48;3.38;;;;;;;1.90;100.00;101386.44;10355764;28;20026;-72
2022/04/09 22:03:02;;;;;;;10.32;3.10;;;;;;;1.87;100.00;101403.09;10372082;28;20037;-73
2022/04/09 22:08:03;;;;;;;17.48;3.25;;;;;;;1.84;100.00;101388.03;10355324;28;20029;-72
2022/04/09 22:13:08;;;;;;;12.75;2.85;;;;;;;1.85;100.00;101381.56;10388115;28;20093;-72
2022/04/09 22:18:10;;;;;;;12.52;3.03;;;;;;;1.79;100.00;101385.84;10388741;28;20042;-71
2022/04/09 22:23:10;;;;;;;22.88;3.25;;;;;;;1.82;100.00;101384.66;10371720;28;20034;-72
2022/04/09 22:28:11;;;;;;;11.15;2.65;;;;;;;1.70;100.00;101381.53;10387835;28;20461;-72
2022/04/09 22:33:11;;;;;;;6.15;1.80;;;;;;;1.79;100.00;101396.72;10370268;28;20042;-72
2022/04/09 22:38:13;;;;;;;8.57;2.45;;;;;;;1.75;100.00;101387.25;10370664;28;20034;-72
2022/04/09 22:43:14;;;;;;;8.57;2.17;;;;;;;1.90;100.00;101397.28;10370491;28;20033;-72
2022/04/09 22:48:16;;;;;;;17.33;2.78;;;;;;;1.89;100.00;101395.63;10371344;28;20026;-72
2022/04/09 22:53:16;;;;;;;9.35;2.40;;;;;;;1.79;100.00;101402.13;10371031;28;20034;-71
2022/04/09 22:58:17;;;;;;;17.90;3.17;;;;;;;1.76;100.00;101404.41;10370281;28;20026;-72
2022/04/09 23:03:19;;;;;;;9.63;2.30;;;;;;;1.71;100.00;101404.91;10369498;28;20041;-72